Station info - map view · info · telemetry · weather · raw · status · beacons · messages · bulletins · browse · moving · my account
Callsign, ship name or locator: Clear       
It is possible to search using wildcards (*?) after a prefix. Example: OH*
APRS station K0AFI-9 - show graphs
Map loading...
Comment: 146.900MHz C107 -060
Mic-E message: Off duty
Location: 38°19.95' N 109°49.72' W - locator DM58CH09NT - show map - static map
22.4 miles Southwest bearing 222° from Moab, Grand County, Utah, United States [?]
41.4 miles Northwest bearing 320° from Monticello, San Juan County, Utah, United States
85.4 miles Southwest bearing 234° from Grand Junction, Mesa County, Colorado, United States
91.0 miles Southwest bearing 235° from Clifton, Mesa County, Colorado, United States
Last position: 2019-11-13 16:40:23 EST (4d 21h15m ago)
2019-11-13 14:40:23 MST local time at Moab, United States [?]
Altitude: 4751 ft
Course: 144°
Speed: 4 MPH
Device: Yaesu: FTM-400DR (rig)
Last path: K0AFI-9>SXQYYU via BALD,WIDE1*,WIDE2-1,qAR,K7YI-4 (good)
Positions stored: 486
Other SSIDs: K0AFI-7
Stations near current position of K0AFI-9 - show more
callsign distance last heard - EST      callsign distance last heard - EST
CANYLD8.7 miles 125°2019-11-18 13:39:00 K7QEQ21.5 miles 75°2019-11-18 13:44:36
K7QEQ-622.0 miles 43°2019-11-18 13:54:06 K7QEQ-322.0 miles 43°2019-11-18 13:54:21
KF7QGC-922.2 miles 43°2019-11-04 20:34:20 K7QEQ-122.2 miles 46°2019-11-18 13:55:46
146.900-u22.4 miles 42°2019-11-18 09:11:02 KG7CES22.6 miles 40°2019-11-16 17:23:00
KG4YFA-722.6 miles 42°2019-10-24 18:48:50 KG7CES-122.6 miles 40°2019-11-18 12:08:22
EW769522.6 miles 47°2019-11-18 13:45:06 K7QEQ-522.6 miles 47°2019-11-18 13:54:03
KD8HDO-522.6 miles 30°2019-11-11 11:53:41 KF7ZVL-622.7 miles 41°2019-11-15 19:15:55
SANDFL23.1 miles 45°2019-11-18 13:28:46 N0AFO-223.5 miles 44°2019-10-22 18:44:35
K5LJJ-923.8 miles 44°2019-11-13 17:49:51 FW242326.6 miles 74°2019-11-18 13:45:05
BALD30.4 miles 63°2019-11-18 13:52:31 146.760-u30.4 miles 63°2019-11-18 13:43:31
Stations which heard K0AFI-9 directly on radio –
callsign pkts first heard - EST last heard longest (tx => rx) longest at - EST
UBUTTE 7 2019-11-12 19:39:07 2019-11-12 20:01:40 DM58CW > DM58QN 67.2 miles 110° 2019-11-12 20:01:40
BAXTER 14 2019-11-12 18:46:59 2019-11-12 19:37:31 DM58HX > DM59MO 47.8 miles 27° 2019-11-12 19:37:31
SUNLGT 3 2019-11-12 17:23:06 2019-11-12 17:45:04 DM69CM > DM69HK 22.1 miles 109° 2019-11-12 17:45:04
GRAND 11 2019-11-12 17:59:39 2019-11-12 19:06:59 DM59NF > DM59VC 37.2 miles 105° 2019-11-12 19:06:59
BALD 5 2019-11-12 20:11:15 2019-11-13 16:40:23 DM58CH > DM58IM 30.4 miles 63° 2019-11-13 16:40:23
VAILMT 5 2019-11-12 15:13:14 2019-11-12 16:27:52 DM69SO > DM69TO 5.2 miles 80° 2019-11-12 16:27:52
ABAJO 3 2019-11-13 12:35:12 2019-11-13 16:31:06 DM58CL > DM57GU 47.0 miles 156° 2019-11-13 12:35:12
K7YI-4 10 2019-11-12 19:37:06 2019-11-13 12:33:11 DM58HW > DM49JF 97.2 miles 281° 2019-11-12 19:37:06
ANVIL 8 2019-11-12 17:35:28 2019-11-12 18:09:10 DM69EN > DM69AM 19.5 miles 267° 2019-11-12 17:37:06
CLIMAX 1 2019-11-12 14:59:50 2019-11-12 14:59:50 DM69VM > DM69VJ 8.9 miles 192° 2019-11-12 14:59:50
DTSERO 5 2019-11-12 16:48:52 2019-11-12 17:17:50 DM69PQ > DM69JP 22.4 miles 265° 2019-11-12 16:48:52
BVILLE 2 2019-11-12 13:18:59 2019-11-12 13:32:51 DM79LU > DM79CQ 39.0 miles 250° 2019-11-12 13:18:59
K0XK-5 2 2019-11-12 13:23:05 2019-11-12 13:42:54 DM79IR > DM79OO 26.2 miles 105° 2019-11-12 13:42:54
N4YRE 2 2019-11-12 13:18:19 2019-11-12 13:36:50 DM79JR > DM79NQ 17.5 miles 101° 2019-11-12 13:36:50
SANDFL 1 2019-11-12 20:29:27 2019-11-12 20:29:27 DM58FN > DM58FN 1.1 miles 94° 2019-11-12 20:29:27
WD4IXD-10 1 2019-11-12 13:24:36 2019-11-12 13:24:36 DM79LT > DM79LM 21.9 miles 171° 2019-11-12 13:24:36
K5RHD-10 2 2019-11-12 13:20:19 2019-11-12 13:21:05 DM79LU > DM79KU 526.1 yards 317° 2019-11-12 13:21:05
K0NTS-5 1 2019-11-12 13:17:48 2019-11-12 13:17:48 DM79LU > DM79GR 21.3 miles 243° 2019-11-12 13:17:48
AI0J-10 1 2019-11-12 13:26:19 2019-11-12 13:26:19 DM79LT > DM79HV 17.4 miles 293° 2019-11-12 13:26:19
W0ARP-3 1 2019-11-12 13:38:50 2019-11-12 13:38:50 DM79JQ > DM79QL 33.6 miles 116° 2019-11-12 13:38:50
WA0GEH-10 1 2019-11-12 13:40:50 2019-11-12 13:40:50 DM79JQ > DM79MM 19.1 miles 127° 2019-11-12 13:40:50
AB0TJ 3 2019-11-12 18:26:54 2019-11-12 18:34:54 DM59TC > DM59SB 7.3 miles 238° 2019-11-12 18:26:54

Only position packets which were originated by the station are shown here. The range statistics show some extra long hops, because some digipeaters do not correctly add themselves to the digipeater path. Please check the raw packets.
About this site
This page shows real-time information collected from the Automatic Position Reporting System Internet network (APRS-IS). APRS is used by amateur (ham) radio operators to transmit real-time position information, weather data, telemetry and messages over the radio. A vehicle equipped with a GPS receiver, a VHF transmitter or HF transceiver and a small computer device called a tracker transmits it's location, speed and course in a small data packet, which is then received by a nearby iGate receiving site which forwards the packet on the Internet. Systems connected to the Internet can send information on the APRS-IS without a radio transmitter, or collect and display information transmitted anywhere in the world.
User guide · FAQ · Blog · Discussion group · Linking to aprs.fi · AIS sites · Service status · Database statistics · Advertising on aprs.fi · Technical details · API · Change log · Planned changes · Credits and thanks · Terms Of Service · iPhone/iPad APRS